METAR Data
IDs: Format: Raw Decoded Include TAF

Data at: 2221 UTC 02 Aug 2021

KPTV 022156Z AUTO 30008KT 10SM CLR 37/13 A2998 RMK AO2 SLP150 T03670128
KPTV 022056Z AUTO 32011KT 10SM CLR 35/13 A3000 RMK AO2 SLP156 T03500133 57023
KPTV 021956Z AUTO 29009KT 10SM CLR 33/14 A3002 RMK AO2 SLP163 T03330144
KPTV 021856Z AUTO VRB06KT 10SM CLR 31/16 A3005 RMK AO2 SLP172 T03110156
KPTV 021756Z AUTO 00000KT 10SM CLR 29/15 A3007 RMK AO2 SLP179 T02890150 10289 20178 58005
KPTV 021656Z AUTO 23006KT 10SM CLR 26/14 A3008 RMK AO2 SLP182 T02610139
KPTV 021556Z AUTO 23003KT 10SM CLR 24/13 A3008 RMK AO2 SLP184 T02440128
KPTV 021456Z AUTO 00000KT 10SM CLR 22/10 A3009 RMK AO2 SLP183 T02170100 51014
KPTV 021356Z AUTO 00000KT 10SM CLR 19/05 A3008 RMK AO2 SLP182 T01890050
KPTV 021256Z AUTO 14004KT 10SM CLR 18/04 A3006 RMK AO2 SLP174 T01830044
KPTV 021156Z AUTO 17006KT 10SM CLR 18/05 A3004 RMK AO2 SLP169 T01830050 10261 20183 51012
KPTV 021056Z AUTO 14006KT 10SM CLR 19/01 A3004 RMK AO2 SLP168 T01940011
KPTV 020956Z AUTO 16004KT 10SM CLR 20/01 A3002 RMK AO2 SLP163 T02000011
KPTV 020856Z AUTO 18003KT 10SM CLR 22/M03 A3001 RMK AO2 SLP157 T02171028 55003
KPTV 020756Z AUTO 13005KT 10SM CLR 23/M01 A3000 RMK AO2 SLP155 T02331006 404060206
KPTV 020656Z AUTO 14006KT 10SM CLR 24/M02 A3001 RMK AO2 SLP158 T02391017
KPTV 020556Z AUTO 15007KT 10SM CLR 26/00 A3002 RMK AO2 SLP160 T02560000 10406 20256 51029
KPTV 020456Z AUTO 10008KT 10SM CLR 28/03 A3000 RMK AO2 SLP153 T02830033
KPTV 020356Z AUTO 25008KT 10SM CLR 31/07 A2996 RMK AO2 SLP140 T03060067
KPTV 020256Z AUTO 33005KT 10SM CLR 36/13 A2993 RMK AO2 SLP130 T03560128 53003
KPTV 020156Z AUTO 34007KT 10SM CLR 39/12 A2992 RMK AO2 SLP126 T03890117
KPTV 020056Z AUTO 32011KT 10SM CLR 40/11 A2991 RMK AO2 SLP124 T04000111
KPTV 012356Z AUTO 32010KT 10SM CLR 41/13 A2992 RMK AO2 SLP127 T04060128 10406 20322 56018
KPTV 012256Z AUTO 32009KT 10SM CLR 40/13 A2993 RMK AO2 SLP131 T04000128
KPTV 012156Z AUTO 31009KT 10SM CLR 38/12 A2996 RMK AO2 SLP139 T03830117
KPTV 012056Z AUTO 31010KT 10SM CLR 38/12 A2997 RMK AO2 SLP145 T03830117 58019
KPTV 011956Z AUTO 30010KT 10SM CLR 37/12 A2999 RMK AO2 SLP151 T03670122
KPTV 011856Z AUTO 31006KT 10SM CLR 35/13 A3001 RMK AO2 SLP157 T03500133
KPTV 011756Z AUTO VRB03KT 10SM CLR 32/13 A3003 RMK AO2 SLP164 T03220133 10328 20206 58005
KPTV 011656Z AUTO 17005KT 10SM CLR 31/13 A3003 RMK AO2 SLP166 T03060128
KPTV 011556Z AUTO 19004KT 10SM CLR 28/12 A3005 RMK AO2 SLP170 T02780117
KPTV 011456Z AUTO 14004KT 10SM CLR 25/09 A3005 RMK AO2 SLP170 T02500094 51016
KPTV 011356Z AUTO 15004KT 10SM CLR 21/08 A3003 RMK AO2 SLP165 T02110083
KPTV 011256Z AUTO 17005KT 10SM CLR 21/08 A3002 RMK AO2 SLP160 T02060078
KPTV 011156Z AUTO 17004KT 10SM CLR 22/06 A3000 RMK AO2 SLP153 T02170061 10278 20211 53006
KPTV 011056Z AUTO 16008KT 10SM CLR 22/06 A2999 RMK AO2 SLP149 T02220061